Time;durP1;ratioP1;P1;durP2;ratioP2;P2;SDS_P1;SDS_P2;PMS_P1;PMS_P2;Temp;Humidity;BMP_temperature;BMP_pressure;BME280_temperature;BME280_humidity;BME280_pressure;Samples;Min_cycle;Max_cycle;Signal;HPM_P1;HPM_P2
2021/07/12 00:00:07;;;;;;;;;;;27.20;99.90;;;;;;1865657;74;20226;-91
2021/07/12 00:02:36;;;;;;;;;;;27.30;99.90;;;;;;1912766;73;20219;-91
2021/07/12 00:05:09;;;;;;;;;;;27.30;99.90;;;;;;1899364;73;20222;-91
2021/07/12 00:07:42;;;;;;;;;;;27.30;99.90;;;;;;1875446;74;20174;-91
2021/07/12 00:10:16;;;;;;;;;;;27.30;99.90;;;;;;1886815;74;20315;-90
2021/07/12 00:12:56;;;;;;;;;;;27.30;99.90;;;;;;1874724;73;20255;-93
2021/07/12 00:18:48;;;;;;;;;;;;;;;;;;;;;
2021/07/12 00:21:30;;;;;;;;;;;27.30;99.90;;;;;;1733247;81;20172;-91
2021/07/12 00:24:03;;;;;;;;;;;27.30;99.90;;;;;;1735895;81;20655;-91
2021/07/12 00:35:47;;;;;;;;;;;27.30;99.90;;;;;;1771594;78;20205;-92
2021/07/12 00:38:19;;;;;;;;;;;27.40;99.90;;;;;;1775251;78;20232;-90
2021/07/12 00:43:54;;;;;;;;;;;27.40;99.90;;;;;;1739319;80;20200;-88
2021/07/12 00:46:33;;;;;;;;;;;27.40;99.90;;;;;;1785504;78;20240;-88
2021/07/12 00:49:13;;;;;;;;;;;27.40;99.90;;;;;;1746096;80;20180;-89
2021/07/12 00:54:43;;;;;;;;;;;27.40;99.90;;;;;;1755799;79;20246;-90
2021/07/12 01:00:10;;;;;;;;;;;27.50;99.90;;;;;;1759886;80;20240;-90
2021/07/12 01:02:40;;;;;;;;;;;27.50;99.90;;;;;;1757958;79;20316;-89
2021/07/12 01:05:13;;;;;;;;;;;27.50;99.90;;;;;;1731856;79;20243;-90
2021/07/12 01:10:54;;;;;;;;;;;27.50;99.90;;;;;;1713865;81;20274;-91
2021/07/12 01:13:29;;;;;;;;;;;27.60;99.90;;;;;;1894957;73;20274;-90
2021/07/12 01:16:02;;;;;;;;;;;27.60;99.90;;;;;;1899428;73;20370;-90
2021/07/12 01:28:18;;;;;;;;;;;27.90;99.90;;;;;;1705974;80;20536;-89
2021/07/12 01:31:07;;;;;;;;;;;28.00;99.90;;;;;;1737079;77;20190;-90
2021/07/12 01:34:05;;;;;;;;;;;28.10;99.90;;;;;;1786889;77;20264;-91
2021/07/12 01:36:37;;;;;;;;;;;28.10;99.90;;;;;;1818788;77;20166;-90
2021/07/12 01:39:08;;;;;;;;;;;28.20;99.80;;;;;;1802779;77;20188;-89
2021/07/12 01:41:45;;;;;;;;;;;28.20;99.60;;;;;;1824777;77;20270;-91
2021/07/12 01:44:16;;;;;;;;;;;28.30;99.60;;;;;;1820974;77;20286;-91
2021/07/12 01:46:52;;;;;;;;;;;28.30;99.30;;;;;;1836132;77;20225;-90
2021/07/12 01:49:21;;;;;;;;;;;28.40;99.40;;;;;;1777675;77;20457;-91
2021/07/12 01:51:52;;;;;;;;;;;28.50;99.30;;;;;;1808102;77;20260;-90
2021/07/12 01:54:37;;;;;;;;;;;28.60;99.30;;;;;;1796967;77;20478;-89
2021/07/12 01:57:04;;;;;;;;;;;28.60;98.20;;;;;;1769027;79;20270;-89
2021/07/12 01:59:35;;;;;;;;;;;28.70;98.20;;;;;;1879389;74;20118;-90
2021/07/12 02:02:05;;;;;;;;;;;28.70;98.20;;;;;;1897322;73;20256;-90
2021/07/12 02:04:38;;;;;;;;;;;28.70;98.40;;;;;;1876673;74;20211;-91
2021/07/12 02:07:13;;;;;;;;;;;28.70;98.40;;;;;;1866588;74;20237;-90
2021/07/12 02:09:48;;;;;;;;;;;28.80;98.40;;;;;;1871008;75;20220;-90
2021/07/12 02:12:20;;;;;;;;;;;28.90;98.40;;;;;;1863896;74;20182;-91
2021/07/12 02:15:18;;;;;;;;;;;29.10;97.80;;;;;;1865370;75;20236;-90
2021/07/12 02:17:43;;;;;;;;;;;29.10;97.90;;;;;;1863774;74;20181;-92
2021/07/12 02:20:13;;;;;;;;;;;29.10;97.90;;;;;;1888202;74;20236;-90
2021/07/12 02:22:44;;;;;;;;;;;29.10;97.50;;;;;;1886034;74;20207;-91
2021/07/12 02:25:16;;;;;;;;;;;29.10;97.60;;;;;;1889944;73;20275;-92
2021/07/12 02:27:45;;;;;;;;;;;29.10;97.70;;;;;;1891935;73;20313;-90
2021/07/12 02:30:16;;;;;;;;;;;29.10;97.70;;;;;;1883952;74;20601;-92
2021/07/12 02:32:47;;;;;;;;;;;29.10;97.60;;;;;;1901982;73;20237;-91
2021/07/12 02:35:18;;;;;;;;;;;29.30;97.10;;;;;;1903520;73;20205;-91
2021/07/12 02:37:49;;;;;;;;;;;29.40;97.60;;;;;;1893856;73;20244;-90
2021/07/12 02:40:20;;;;;;;;;;;29.60;97.30;;;;;;1871153;75;20474;-91
2021/07/12 02:43:01;;;;;;;;;;;29.80;97.00;;;;;;1874523;74;20258;-92
2021/07/12 02:45:31;;;;;;;;;;;30.00;96.80;;;;;;1894839;73;20311;-91
2021/07/12 02:48:01;;;;;;;;;;;30.10;95.60;;;;;;1877844;74;20240;-91
2021/07/12 02:50:31;;;;;;;;;;;30.30;95.80;;;;;;1889338;73;20186;-88
2021/07/12 02:53:02;;;;;;;;;;;30.40;95.30;;;;;;1884617;75;20166;-90
2021/07/12 02:55:32;;;;;;;;;;;30.50;95.00;;;;;;1875692;75;20348;-92
2021/07/12 02:58:02;;;;;;;;;;;30.60;94.30;;;;;;1877296;74;20160;-91
2021/07/12 03:00:34;;;;;;;;;;;30.80;95.30;;;;;;1887489;75;20324;-90
2021/07/12 03:03:04;;;;;;;;;;;30.90;95.10;;;;;;1866565;75;20459;-90
2021/07/12 03:05:35;;;;;;;;;;;31.00;94.90;;;;;;1882384;74;20179;-90
2021/07/12 03:08:09;;;;;;;;;;;31.10;92.40;;;;;;1889312;74;20191;-89
2021/07/12 03:10:40;;;;;;;;;;;31.20;94.20;;;;;;1875409;74;20246;-90
2021/07/12 03:13:11;;;;;;;;;;;31.30;94.20;;;;;;1873185;75;20147;-90
2021/07/12 03:15:44;;;;;;;;;;;31.40;92.30;;;;;;1855562;76;20183;-90
2021/07/12 03:18:29;;;;;;;;;;;31.40;92.20;;;;;;1857561;75;20199;-89
2021/07/12 03:21:01;;;;;;;;;;;31.40;92.60;;;;;;1815372;77;20767;-92
2021/07/12 03:23:48;;;;;;;;;;;31.40;93.30;;;;;;1823102;76;20218;-90
2021/07/12 03:26:27;;;;;;;;;;;31.50;93.00;;;;;;1861951;75;20236;-90
2021/07/12 03:29:09;;;;;;;;;;;31.60;90.70;;;;;;1880374;74;20239;-94
2021/07/12 03:31:45;;;;;;;;;;;31.70;91.30;;;;;;1884042;74;20156;-91
2021/07/12 03:36:00;;;;;;;;;;;31.80;92.10;;;;;;1898099;74;20180;-92
2021/07/12 03:43:30;;;;;;;;;;;31.90;92.50;;;;;;1754199;80;20244;-92
2021/07/12 03:46:09;;;;;;;;;;;31.90;90.30;;;;;;1707752;78;20203;-91
2021/07/12 04:11:43;;;;;;;;;;;32.40;88.90;;;;;;1881448;74;20165;-91
2021/07/12 04:14:18;;;;;;;;;;;32.60;88.60;;;;;;1860578;77;20188;-92
2021/07/12 04:16:54;;;;;;;;;;;32.70;87.20;;;;;;1850481;77;20292;-88
2021/07/12 04:19:43;;;;;;;;;;;32.70;89.10;;;;;;1812211;77;20356;-90
2021/07/12 04:22:40;;;;;;;;;;;32.80;88.30;;;;;;1856946;77;20219;-88
2021/07/12 04:25:26;;;;;;;;;;;;;;;;;;;;;
2021/07/12 04:27:55;;;;;;;;;;;32.90;85.10;;;;;;1856288;77;20162;-88
2021/07/12 04:30:41;;;;;;;;;;;32.90;85.00;;;;;;1836250;77;20245;-92
2021/07/12 04:33:11;;;;;;;;;;;33.00;85.20;;;;;;1720615;82;20295;-87
2021/07/12 04:35:57;;;;;;;;;;;;;;;;;;;;;
2021/07/12 04:41:45;;;;;;;;;;;32.80;83.60;;;;;;1644344;86;20858;-92
2021/07/12 04:44:29;;;;;;;;;;;32.70;85.50;;;;;;1944341;72;20303;-88
2021/07/12 04:47:00;;;;;;;;;;;32.60;86.40;;;;;;1915065;74;20122;-91
2021/07/12 04:49:30;;;;;;;;;;;32.60;86.00;;;;;;1909028;73;20274;-90
2021/07/12 04:52:03;;;;;;;;;;;32.70;87.50;;;;;;1915663;74;20217;-89
2021/07/12 04:54:33;;;;;;;;;;;32.80;84.70;;;;;;1910050;73;20413;-92
2021/07/12 04:57:03;;;;;;;;;;;32.80;85.70;;;;;;1914161;74;20190;-91
2021/07/12 04:59:38;;;;;;;;;;;32.80;84.30;;;;;;1913063;74;20329;-92
2021/07/12 05:02:05;;;;;;;;;;;32.90;83.30;;;;;;1903172;74;20244;-91
2021/07/12 05:04:41;;;;;;;;;;;32.90;83.90;;;;;;1886602;73;20210;-89
2021/07/12 05:07:11;;;;;;;;;;;32.70;84.40;;;;;;1917512;73;20237;-91
2021/07/12 05:09:41;;;;;;;;;;;32.70;84.90;;;;;;1846676;76;20198;-90
2021/07/12 05:12:12;;;;;;;;;;;32.60;85.70;;;;;;1875812;75;20229;-89
2021/07/12 05:14:42;;;;;;;;;;;32.70;83.50;;;;;;1875833;76;20230;-90
2021/07/12 05:17:12;;;;;;;;;;;32.60;84.80;;;;;;1874286;76;20619;-89
2021/07/12 05:19:42;;;;;;;;;;;32.70;84.80;;;;;;1869504;75;20144;-90
2021/07/12 05:22:11;;;;;;;;;;;32.80;87.00;;;;;;1915513;74;20150;-90
2021/07/12 05:24:41;;;;;;;;;;;32.80;85.80;;;;;;1920178;73;20166;-92
2021/07/12 05:27:11;;;;;;;;;;;32.70;85.00;;;;;;1911584;73;20181;-90
2021/07/12 05:29:41;;;;;;;;;;;32.60;83.90;;;;;;1914824;74;20182;-92
2021/07/12 05:32:13;;;;;;;;;;;32.40;84.50;;;;;;1913840;74;20229;-92
2021/07/12 05:34:54;;;;;;;;;;;;;;;;;;;;;
2021/07/12 05:37:28;;;;;;;;;;;31.80;86.40;;;;;;1908907;75;20193;-90
2021/07/12 05:40:15;;;;;;;;;;;31.30;89.60;;;;;;1870351;75;20246;-91
2021/07/12 05:42:45;;;;;;;;;;;30.90;90.60;;;;;;1851965;76;20133;-90
2021/07/12 05:45:25;;;;;;;;;;;30.30;91.40;;;;;;1857261;77;20164;-87
2021/07/12 05:47:47;;;;;;;;;;;29.90;93.00;;;;;;1835432;76;20233;-87
2021/07/12 05:50:16;;;;;;;;;;;29.50;94.00;;;;;;1865745;75;20192;-89
2021/07/12 05:52:46;;;;;;;;;;;29.20;94.30;;;;;;1858979;75;20141;-87
2021/07/12 05:55:16;;;;;;;;;;;28.80;94.50;;;;;;1904654;74;20198;-88
2021/07/12 05:57:46;;;;;;;;;;;28.60;95.00;;;;;;1908226;75;20233;-89
2021/07/12 06:00:16;;;;;;;;;;;28.40;94.60;;;;;;1904875;74;20511;-89
2021/07/12 06:02:46;;;;;;;;;;;28.20;95.00;;;;;;1902384;74;20205;-90
2021/07/12 06:05:16;;;;;;;;;;;28.20;95.10;;;;;;1896964;74;20277;-89
2021/07/12 06:08:04;;;;;;;;;;;28.30;94.20;;;;;;1906398;74;20209;-90
2021/07/12 06:10:34;;;;;;;;;;;28.30;93.90;;;;;;1903369;74;20232;-90
2021/07/12 06:13:23;;;;;;;;;;;28.40;93.60;;;;;;1911696;74;20233;-91
2021/07/12 06:16:45;;;;;;;;;;;28.60;92.80;;;;;;1824125;78;20312;-89
2021/07/12 06:27:55;;;;;;;;;;;29.50;90.10;;;;;;1724652;81;20288;-89
2021/07/12 06:30:46;;;;;;;;;;;29.70;89.40;;;;;;1731355;78;20622;-90
2021/07/12 06:35:12;;;;;;;;;;;30.10;86.20;;;;;;1783313;78;20507;-91
2021/07/12 06:36:14;;;;;;;;;;;30.30;86.70;;;;;;1765058;78;20148;-90
2021/07/12 06:38:44;;;;;;;;;;;30.50;85.90;;;;;;1787983;78;20200;-90
2021/07/12 06:41:15;;;;;;;;;;;30.70;86.10;;;;;;1791011;78;20218;-89
2021/07/12 06:43:48;;;;;;;;;;;30.90;84.40;;;;;;1764345;78;20309;-90
2021/07/12 06:46:16;;;;;;;;;;;31.00;85.00;;;;;;1787568;78;20256;-90
2021/07/12 06:49:23;;;;;;;;;;;31.10;83.20;;;;;;1786782;78;20294;-90
2021/07/12 06:51:50;;;;;;;;;;;31.10;84.20;;;;;;1772173;80;20291;-88
2021/07/12 06:54:20;;;;;;;;;;;31.20;84.70;;;;;;1782060;79;20208;-88
2021/07/12 06:56:50;;;;;;;;;;;31.30;85.60;;;;;;1806521;75;20146;-87
2021/07/12 06:59:19;;;;;;;;;;;31.40;86.40;;;;;;1865233;75;20533;-87
2021/07/12 07:01:49;;;;;;;;;;;31.40;86.40;;;;;;1854894;75;20220;-88
2021/07/12 07:04:18;;;;;;;;;;;31.40;86.60;;;;;;1853797;75;20234;-88
2021/07/12 07:06:59;;;;;;;;;;;31.50;86.30;;;;;;1853766;75;20212;-90
2021/07/12 07:09:27;;;;;;;;;;;31.60;86.70;;;;;;1866770;75;20710;-89
2021/07/12 07:11:56;;;;;;;;;;;31.70;86.90;;;;;;1865164;75;20120;-89
2021/07/12 07:14:26;;;;;;;;;;;31.70;84.90;;;;;;1870494;75;20301;-87
2021/07/12 07:16:56;;;;;;;;;;;31.80;84.80;;;;;;1911113;74;20123;-87
2021/07/12 07:19:27;;;;;;;;;;;31.80;84.60;;;;;;1819379;75;20596;-87
2021/07/12 07:21:56;;;;;;;;;;;31.80;83.20;;;;;;1918030;74;20204;-88
2021/07/12 07:24:27;;;;;;;;;;;31.80;84.90;;;;;;1910656;74;20182;-89
2021/07/12 07:26:56;;;;;;;;;;;31.90;84.50;;;;;;1866708;77;20168;-89
2021/07/12 07:29:26;;;;;;;;;;;31.90;84.80;;;;;;1816711;79;20119;-88
2021/07/12 07:31:56;;;;;;;;;;;32.00;84.90;;;;;;1836044;78;20162;-88
2021/07/12 07:34:30;;;;;;;;;;;32.00;84.80;;;;;;1838150;76;20460;-89
2021/07/12 07:36:59;;;;;;;;;;;32.00;83.40;;;;;;1827829;78;20623;-89
2021/07/12 07:39:29;;;;;;;;;;;32.10;83.50;;;;;;1830107;78;20288;-90
2021/07/12 07:42:24;;;;;;;;;;;;;;;;;;;;;
2021/07/12 07:45:17;;;;;;;;;;;32.20;83.50;;;;;;1711878;79;20264;-87
2021/07/12 07:48:04;;;;;;;;;;;32.40;83.30;;;;;;1794389;78;20208;-88
2021/07/12 07:51:32;;;;;;;;;;;32.40;82.80;;;;;;1794265;78;20243;-86
2021/07/12 07:53:30;;;;;;;;;;;32.40;83.40;;;;;;1777255;79;20147;-87
2021/07/12 07:55:58;;;;;;;;;;;32.40;82.90;;;;;;1773016;79;20208;-88
2021/07/12 07:58:33;;;;;;;;;;;32.40;84.00;;;;;;1792872;79;20146;-85
2021/07/12 08:01:01;;;;;;;;;;;32.30;84.20;;;;;;1789799;78;20198;-85
2021/07/12 08:03:31;;;;;;;;;;;32.30;85.20;;;;;;1786606;79;20228;-90
2021/07/12 08:06:01;;;;;;;;;;;32.20;84.30;;;;;;1790459;79;20249;-90
2021/07/12 08:08:31;;;;;;;;;;;32.20;84.10;;;;;;1794793;78;20174;-89
2021/07/12 08:11:00;;;;;;;;;;;32.20;83.80;;;;;;1787890;79;20236;-90
2021/07/12 08:13:35;;;;;;;;;;;32.20;82.60;;;;;;1795625;78;20259;-87
2021/07/12 08:16:10;;;;;;;;;;;32.20;82.90;;;;;;1792190;78;20633;-83
2021/07/12 08:18:40;;;;;;;;;;;32.20;83.20;;;;;;1794748;78;20515;-86
2021/07/12 08:21:11;;;;;;;;;;;32.30;83.30;;;;;;1797892;74;20213;-86
2021/07/12 08:23:41;;;;;;;;;;;32.30;84.10;;;;;;1921902;74;20236;-87
2021/07/12 08:26:11;;;;;;;;;;;32.40;83.90;;;;;;1913617;75;20260;-87
2021/07/12 08:28:41;;;;;;;;;;;32.40;84.10;;;;;;1890413;74;20120;-85
2021/07/12 08:31:12;;;;;;;;;;;32.50;83.70;;;;;;1914502;74;20185;-84
2021/07/12 08:33:49;;;;;;;;;;;32.60;84.10;;;;;;1923126;73;20119;-87
2021/07/12 08:36:18;;;;;;;;;;;32.70;83.50;;;;;;1906517;73;20191;-85
2021/07/12 08:38:48;;;;;;;;;;;32.70;82.80;;;;;;1872703;75;20270;-88
2021/07/12 08:41:18;;;;;;;;;;;32.70;83.80;;;;;;1861368;75;20491;-86
2021/07/12 08:44:06;;;;;;;;;;;32.70;82.70;;;;;;1833579;76;20126;-86
2021/07/12 08:46:36;;;;;;;;;;;32.80;82.40;;;;;;1869548;76;20135;-86
2021/07/12 08:49:05;;;;;;;;;;;32.80;82.90;;;;;;1916411;74;20262;-87
2021/07/12 08:51:35;;;;;;;;;;;32.70;82.70;;;;;;1906291;74;20192;-87
2021/07/12 08:54:05;;;;;;;;;;;32.70;82.90;;;;;;1904471;74;20189;-87
2021/07/12 08:56:35;;;;;;;;;;;32.60;82.50;;;;;;1917333;74;20193;-87
2021/07/12 08:59:17;;;;;;;;;;;32.60;83.50;;;;;;1910244;74;20208;-89
2021/07/12 09:01:53;;;;;;;;;;;32.60;83.90;;;;;;1898712;74;20239;-88
2021/07/12 09:04:47;;;;;;;;;;;32.50;83.30;;;;;;1878480;73;20416;-87
2021/07/12 09:07:18;;;;;;;;;;;32.40;83.80;;;;;;1865231;75;20236;-88
2021/07/12 09:09:49;;;;;;;;;;;32.40;83.30;;;;;;1830473;77;20217;-86
2021/07/12 09:18:30;;;;;;;;;;;32.20;82.50;;;;;;1774139;78;20443;-87
2021/07/12 09:21:06;;;;;;;;;;;32.10;82.60;;;;;;1795805;77;20668;-87
2021/07/12 09:23:39;;;;;;;;;;;32.00;82.50;;;;;;1767954;80;20269;-85
2021/07/12 09:29:05;;;;;;;;;;;31.90;83.70;;;;;;1826049;78;20257;-86
2021/07/12 09:31:36;;;;;;;;;;;31.80;85.90;;;;;;1825752;77;20327;-85
2021/07/12 09:34:07;;;;;;;;;;;31.80;89.50;;;;;;1824633;77;20176;-84
2021/07/12 09:36:37;;;;;;;;;;;31.60;90.60;;;;;;1831955;77;20200;-85
2021/07/12 09:39:08;;;;;;;;;;;31.40;91.30;;;;;;1830711;76;20168;-85
2021/07/12 09:41:39;;;;;;;;;;;31.20;92.00;;;;;;1820693;76;20166;-85
2021/07/12 09:44:13;;;;;;;;;;;30.90;92.50;;;;;;1831452;76;20231;-85
2021/07/12 09:46:43;;;;;;;;;;;30.60;92.80;;;;;;1838320;76;20568;-85
2021/07/12 09:49:20;;;;;;;;;;;30.40;93.60;;;;;;1839611;77;20166;-88
2021/07/12 09:51:50;;;;;;;;;;;30.20;93.50;;;;;;1831703;78;20317;-86
2021/07/12 09:54:21;;;;;;;;;;;30.10;93.50;;;;;;1832732;77;20176;-86
2021/07/12 09:56:52;;;;;;;;;;;29.90;93.10;;;;;;1887101;73;20197;-87
2021/07/12 09:59:22;;;;;;;;;;;29.70;93.70;;;;;;1920504;73;20155;-81
2021/07/12 10:01:53;;;;;;;;;;;29.50;93.90;;;;;;1926214;73;20427;-79
2021/07/12 10:04:24;;;;;;;;;;;29.40;94.60;;;;;;1945117;73;20202;-78
2021/07/12 10:06:54;;;;;;;;;;;29.30;94.90;;;;;;1914030;73;20196;-79
2021/07/12 10:09:24;;;;;;;;;;;29.30;94.40;;;;;;1923816;73;20147;-80
2021/07/12 10:11:55;;;;;;;;;;;29.10;93.90;;;;;;1917916;73;20128;-80
2021/07/12 10:14:25;;;;;;;;;;;28.90;93.90;;;;;;1925451;74;20114;-79
2021/07/12 10:16:55;;;;;;;;;;;28.80;94.10;;;;;;1915431;73;20131;-80
2021/07/12 10:19:25;;;;;;;;;;;28.60;94.30;;;;;;1912792;74;20187;-80
2021/07/12 10:21:55;;;;;;;;;;;28.50;94.40;;;;;;1917039;74;20130;-78
2021/07/12 10:24:26;;;;;;;;;;;28.40;94.10;;;;;;1923996;74;20161;-79
2021/07/12 10:26:58;;;;;;;;;;;28.20;93.00;;;;;;1918470;74;20511;-81
2021/07/12 10:29:31;;;;;;;;;;;28.10;93.20;;;;;;1922921;73;20419;-80
2021/07/12 10:32:02;;;;;;;;;;;28.10;93.20;;;;;;1921451;74;20143;-80
2021/07/12 10:34:37;;;;;;;;;;;28.00;93.60;;;;;;1918376;73;20121;-80
2021/07/12 10:37:09;;;;;;;;;;;28.00;94.10;;;;;;1919721;74;20535;-79
2021/07/12 10:39:45;;;;;;;;;;;27.90;94.40;;;;;;1918954;74;20258;-84
2021/07/12 10:42:16;;;;;;;;;;;27.90;94.60;;;;;;1918547;74;20205;-80
2021/07/12 10:44:47;;;;;;;;;;;27.90;95.50;;;;;;1833018;76;20139;-80
2021/07/12 10:47:17;;;;;;;;;;;27.90;95.50;;;;;;1842835;76;20226;-79
2021/07/12 10:49:48;;;;;;;;;;;27.90;95.90;;;;;;1834801;76;20221;-79
2021/07/12 10:52:18;;;;;;;;;;;27.80;96.50;;;;;;1833518;76;20507;-80
2021/07/12 10:54:51;;;;;;;;;;;27.80;96.20;;;;;;1834588;78;20240;-80
2021/07/12 10:57:21;;;;;;;;;;;27.80;96.30;;;;;;1838867;77;20185;-81
2021/07/12 10:59:52;;;;;;;;;;;27.80;96.50;;;;;;1839980;77;20168;-81
2021/07/12 11:02:23;;;;;;;;;;;27.80;96.20;;;;;;1839803;77;20188;-79
2021/07/12 11:04:55;;;;;;;;;;;27.80;96.60;;;;;;1835009;76;20631;-81
2021/07/12 11:07:28;;;;;;;;;;;27.80;97.10;;;;;;1834430;76;20209;-80
2021/07/12 11:10:00;;;;;;;;;;;27.80;96.40;;;;;;1833454;76;20245;-80
2021/07/12 11:12:34;;;;;;;;;;;27.70;95.70;;;;;;1842087;76;20132;-80
2021/07/12 11:15:08;;;;;;;;;;;27.60;95.40;;;;;;1836042;76;20184;-79
2021/07/12 11:17:40;;;;;;;;;;;27.60;95.40;;;;;;1834995;77;20451;-79
2021/07/12 11:20:11;;;;;;;;;;;27.60;95.40;;;;;;1842882;77;20723;-80
2021/07/12 11:22:42;;;;;;;;;;;27.60;95.30;;;;;;1836206;77;20242;-80
2021/07/12 11:25:12;;;;;;;;;;;27.50;95.20;;;;;;1831758;77;20164;-81
2021/07/12 11:27:43;;;;;;;;;;;27.60;95.00;;;;;;1832349;78;20225;-79
2021/07/12 11:30:14;;;;;;;;;;;27.60;94.80;;;;;;1839740;76;20200;-82
2021/07/12 11:32:45;;;;;;;;;;;27.60;94.80;;;;;;1837398;77;20533;-77
2021/07/12 11:35:16;;;;;;;;;;;27.60;94.60;;;;;;1834134;77;20232;-80
2021/07/12 11:37:46;;;;;;;;;;;27.60;94.60;;;;;;1814217;78;20232;-80
2021/07/12 11:40:16;;;;;;;;;;;27.70;94.50;;;;;;1911580;74;20127;-79
2021/07/12 11:42:46;;;;;;;;;;;27.70;94.60;;;;;;1912901;74;20750;-79
2021/07/12 11:45:17;;;;;;;;;;;27.70;94.50;;;;;;1909952;74;20213;-79
2021/07/12 11:47:51;;;;;;;;;;;27.60;94.70;;;;;;1913941;74;20175;-81
2021/07/12 11:50:20;;;;;;;;;;;27.60;94.80;;;;;;1890247;74;20460;-75
2021/07/12 11:52:51;;;;;;;;;;;27.60;94.90;;;;;;1896196;75;20228;-93
2021/07/12 11:55:39;;;;;;;;;;;27.50;95.10;;;;;;1894994;75;20273;-92
2021/07/12 11:58:29;;;;;;;;;;;27.50;95.20;;;;;;1887680;74;20172;-93
2021/07/12 12:00:58;;;;;;;;;;;27.60;95.30;;;;;;1891843;76;20463;-92
2021/07/12 12:03:31;;;;;;;;;;;27.50;95.40;;;;;;1890590;76;20128;-92
2021/07/12 12:06:03;;;;;;;;;;;27.50;95.70;;;;;;1897987;74;20275;-92
2021/07/12 12:09:02;;;;;;;;;;;27.60;95.90;;;;;;1816971;77;20197;-95
2021/07/12 12:11:33;;;;;;;;;;;27.60;95.90;;;;;;1819577;78;20417;-92
2021/07/12 12:14:02;;;;;;;;;;;27.60;95.80;;;;;;1826855;77;20843;-92
2021/07/12 12:16:31;;;;;;;;;;;27.60;95.90;;;;;;1823870;78;20141;-93
2021/07/12 12:19:04;;;;;;;;;;;27.60;96.50;;;;;;1891214;74;20187;-90
2021/07/12 12:21:34;;;;;;;;;;;27.60;96.40;;;;;;1859062;76;20130;-90
2021/07/12 12:24:05;;;;;;;;;;;27.60;96.00;;;;;;1889869;76;20480;-93
2021/07/12 12:26:50;;;;;;;;;;;27.60;95.90;;;;;;1892677;76;20134;-91
2021/07/12 12:29:21;;;;;;;;;;;27.60;95.90;;;;;;1890879;76;20436;-93
2021/07/12 12:31:59;;;;;;;;;;;27.50;96.00;;;;;;1893062;75;20201;-89
2021/07/12 12:34:33;;;;;;;;;;;27.50;96.10;;;;;;1839667;76;20184;-93
2021/07/12 12:37:04;;;;;;;;;;;27.60;96.10;;;;;;1839820;76;20499;-89
2021/07/12 12:39:49;;;;;;;;;;;27.50;96.10;;;;;;1846437;77;20127;-91
2021/07/12 12:42:23;;;;;;;;;;;27.50;96.30;;;;;;1890617;76;20224;-91
2021/07/12 12:45:13;;;;;;;;;;;27.40;96.40;;;;;;1890818;74;20243;-92
2021/07/12 12:51:32;;;;;;;;;;;27.40;96.50;;;;;;1874863;76;20153;-90
2021/07/12 12:54:07;;;;;;;;;;;27.40;96.50;;;;;;1889904;74;20545;-93
2021/07/12 12:56:38;;;;;;;;;;;27.40;96.70;;;;;;1891374;74;20177;-90
2021/07/12 12:59:23;;;;;;;;;;;27.40;97.00;;;;;;1888738;76;20167;-94
2021/07/12 13:01:54;;;;;;;;;;;27.50;97.10;;;;;;1842632;76;20207;-92
2021/07/12 13:04:30;;;;;;;;;;;27.50;97.00;;;;;;1838134;76;20272;-91
2021/07/12 13:07:03;;;;;;;;;;;27.50;96.90;;;;;;1778638;77;20208;-90
2021/07/12 13:09:39;;;;;;;;;;;27.50;97.10;;;;;;1843518;76;20288;-89
2021/07/12 13:12:14;;;;;;;;;;;27.40;97.00;;;;;;1849853;76;20248;-92
2021/07/12 13:14:48;;;;;;;;;;;27.40;97.20;;;;;;1827550;78;20536;-92
2021/07/12 13:17:19;;;;;;;;;;;27.40;97.30;;;;;;1895456;74;20233;-91
2021/07/12 13:20:00;;;;;;;;;;;27.30;97.40;;;;;;1888849;74;20208;-90
2021/07/12 13:22:38;;;;;;;;;;;27.30;97.40;;;;;;1890287;74;20484;-91
2021/07/12 13:25:11;;;;;;;;;;;27.30;97.50;;;;;;1891100;76;20480;-92
2021/07/12 13:27:44;;;;;;;;;;;27.30;97.60;;;;;;1889000;74;20181;-92
2021/07/12 13:30:24;;;;;;;;;;;27.20;97.60;;;;;;1771184;79;20424;-91
2021/07/12 13:32:54;;;;;;;;;;;27.30;97.90;;;;;;1833924;78;20225;-92
2021/07/12 13:35:25;;;;;;;;;;;27.30;98.10;;;;;;1835648;77;20209;-91
2021/07/12 13:38:17;;;;;;;;;;;;;;;;;;;;;
2021/07/12 13:40:48;;;;;;;;;;;27.30;97.90;;;;;;1832689;78;20177;-90
2021/07/12 13:43:21;;;;;;;;;;;27.40;97.80;;;;;;1834816;78;20228;-90
2021/07/12 13:45:55;;;;;;;;;;;27.30;97.80;;;;;;1809213;78;20253;-90
2021/07/12 13:48:27;;;;;;;;;;;27.30;97.70;;;;;;1840493;77;20193;-91
2021/07/12 13:51:56;;;;;;;;;;;27.30;97.70;;;;;;1855461;76;20507;-91
2021/07/12 13:53:56;;;;;;;;;;;27.30;97.80;;;;;;1841223;75;20164;-91
2021/07/12 13:56:25;;;;;;;;;;;27.30;98.00;;;;;;1870358;76;20228;-88
2021/07/12 13:58:55;;;;;;;;;;;27.20;97.90;;;;;;1861265;76;20185;-89
2021/07/12 14:01:25;;;;;;;;;;;27.20;98.00;;;;;;1867974;76;20216;-90
2021/07/12 14:03:55;;;;;;;;;;;27.30;98.20;;;;;;1866717;76;20244;-90
2021/07/12 14:06:24;;;;;;;;;;;27.30;98.80;;;;;;1913229;74;20267;-90
2021/07/12 14:08:54;;;;;;;;;;;27.30;98.80;;;;;;1922064;74;20170;-91
2021/07/12 14:11:24;;;;;;;;;;;27.30;98.80;;;;;;1911241;75;20188;-90
2021/07/12 14:13:54;;;;;;;;;;;27.30;99.10;;;;;;1918952;74;20207;-89
2021/07/12 14:16:24;;;;;;;;;;;27.20;99.20;;;;;;1873802;75;20512;-91
2021/07/12 14:18:54;;;;;;;;;;;27.20;99.30;;;;;;1856273;77;20119;-91
2021/07/12 14:21:27;;;;;;;;;;;27.20;99.40;;;;;;1875691;76;20238;-91
2021/07/12 14:23:57;;;;;;;;;;;27.10;99.50;;;;;;1872880;76;20213;-91
2021/07/12 14:26:34;;;;;;;;;;;27.10;99.60;;;;;;1838531;76;20343;-89
2021/07/12 14:29:13;;;;;;;;;;;27.10;99.80;;;;;;1871576;75;20226;-90
2021/07/12 14:31:44;;;;;;;;;;;27.10;99.90;;;;;;1880302;76;20199;-91
2021/07/12 14:34:18;;;;;;;;;;;27.20;99.90;;;;;;1878730;75;20232;-91
2021/07/12 14:36:53;;;;;;;;;;;27.20;99.90;;;;;;1873322;75;20511;-90
2021/07/12 14:39:26;;;;;;;;;;;27.20;99.90;;;;;;1880440;75;20167;-91
2021/07/12 14:41:57;;;;;;;;;;;27.20;99.90;;;;;;1880650;75;20211;-92
2021/07/12 14:44:32;;;;;;;;;;;27.20;99.90;;;;;;1882159;76;20192;-92
2021/07/12 14:47:01;;;;;;;;;;;27.30;99.90;;;;;;1879694;75;20109;-91
2021/07/12 14:49:35;;;;;;;;;;;27.30;99.80;;;;;;1874437;75;20499;-90
2021/07/12 14:52:19;;;;;;;;;;;27.30;99.70;;;;;;1872723;75;20180;-92
2021/07/12 14:54:49;;;;;;;;;;;27.30;99.50;;;;;;1854243;76;20208;-92
2021/07/12 14:57:21;;;;;;;;;;;27.30;99.30;;;;;;1875021;76;20220;-92
2021/07/12 14:59:53;;;;;;;;;;;27.40;99.20;;;;;;1869847;76;20204;-92
2021/07/12 15:02:34;;;;;;;;;;;27.40;99.00;;;;;;1872947;75;20179;-92
2021/07/12 15:05:05;;;;;;;;;;;27.40;98.90;;;;;;1836775;76;20221;-91
2021/07/12 15:07:35;;;;;;;;;;;27.30;98.70;;;;;;1887271;76;20183;-90
2021/07/12 15:10:12;;;;;;;;;;;27.40;98.80;;;;;;1880271;76;20203;-91
2021/07/12 15:12:44;;;;;;;;;;;27.40;98.80;;;;;;1850186;76;20156;-90
2021/07/12 15:15:14;;;;;;;;;;;27.40;98.80;;;;;;1848102;76;20121;-90
2021/07/12 15:17:44;;;;;;;;;;;27.40;99.00;;;;;;1855058;76;20194;-93
2021/07/12 15:20:17;;;;;;;;;;;27.40;98.90;;;;;;1894029;75;20158;-92
2021/07/12 15:22:50;;;;;;;;;;;27.40;99.00;;;;;;1879728;75;20183;-91
2021/07/12 15:25:25;;;;;;;;;;;27.40;99.10;;;;;;1858489;76;20119;-91
2021/07/12 15:27:55;;;;;;;;;;;27.40;99.20;;;;;;1880332;76;20228;-91
2021/07/12 15:30:29;;;;;;;;;;;27.30;99.20;;;;;;1887867;75;20245;-90
2021/07/12 15:33:00;;;;;;;;;;;27.30;99.30;;;;;;1838901;77;20166;-90
2021/07/12 15:35:51;;;;;;;;;;;27.20;99.40;;;;;;1904651;70;20394;-91
2021/07/12 15:38:16;;;;;;;;;;;27.30;99.40;;;;;;1893179;75;20295;-91
2021/07/12 15:41:12;;;;;;;;;;;27.30;99.50;;;;;;1935174;73;20191;-91
2021/07/12 15:44:16;;;;;;;;;;;27.30;99.20;;;;;;1944355;73;20190;-89
2021/07/12 15:47:02;;;;;;;;;;;27.30;99.40;;;;;;1917738;73;20168;-91
2021/07/12 15:49:32;;;;;;;;;;;27.40;99.40;;;;;;1911680;75;20126;-90
2021/07/12 15:52:07;;;;;;;;;;;27.40;99.30;;;;;;1865492;75;20120;-91
2021/07/12 15:54:36;;;;;;;;;;;27.40;99.00;;;;;;1904641;75;20200;-90
2021/07/12 15:57:23;;;;;;;;;;;27.40;98.80;;;;;;1894171;75;20237;-90
2021/07/12 16:00:15;;;;;;;;;;;27.50;98.90;;;;;;1893330;75;20165;-90
2021/07/12 16:02:51;;;;;;;;;;;27.50;98.70;;;;;;1883895;75;20155;-91
2021/07/12 16:05:18;;;;;;;;;;;27.50;98.70;;;;;;1905340;75;20126;-91
2021/07/12 16:07:48;;;;;;;;;;;27.60;98.60;;;;;;1895033;75;20161;-90
2021/07/12 16:10:27;;;;;;;;;;;27.60;98.60;;;;;;1898638;75;20118;-91
2021/07/12 16:13:01;;;;;;;;;;;27.50;98.90;;;;;;1883165;75;20206;-91
2021/07/12 16:15:33;;;;;;;;;;;27.50;99.10;;;;;;1893253;76;20223;-92
2021/07/12 16:18:07;;;;;;;;;;;27.40;99.20;;;;;;1890533;75;20169;-91
2021/07/12 16:20:45;;;;;;;;;;;27.40;99.40;;;;;;1908446;75;20531;-91
2021/07/12 16:23:15;;;;;;;;;;;27.30;99.30;;;;;;1907397;75;20166;-91
2021/07/12 16:25:56;;;;;;;;;;;27.30;99.50;;;;;;1909861;74;20162;-91
2021/07/12 16:28:27;;;;;;;;;;;27.30;99.90;;;;;;1872962;75;20184;-92
2021/07/12 16:30:57;;;;;;;;;;;27.30;99.90;;;;;;1899079;75;20192;-90